Time;durP1;ratioP1;P1;durP2;ratioP2;P2;SDS_P1;SDS_P2;PMS_P1;PMS_P2;Temp;Humidity;BMP_temperature;BMP_pressure;BME280_temperature;BME280_humidity;BME280_pressure;Samples;Min_cycle;Max_cycle;Signal;HPM_P1;HPM_P2
2021/11/12 00:03:22;;;;;;;;;;;20.90;81.80;;;;;;6228873;22;20336;-70
2021/11/12 00:14:03;;;;;;;8.77;2.60;;;20.80;81.80;;;;;;6269293;22;20292;-70
2021/11/12 00:16:30;;;;;;;18.08;3.13;;;20.70;81.90;;;;;;6270261;22;20050;-69
2021/11/12 00:18:57;;;;;;;17.38;4.07;;;20.70;82.00;;;;;;6268733;22;20000;-68
2021/11/12 00:21:24;;;;;;;11.15;2.50;;;20.70;82.00;;;;;;6270462;22;20027;-68
2021/11/12 00:23:51;;;;;;;9.50;2.70;;;20.70;82.00;;;;;;6269124;22;20589;-68
2021/11/12 00:26:19;;;;;;;10.07;3.42;;;20.70;82.20;;;;;;6269899;22;20427;-68
2021/11/12 00:28:52;;;;;;;12.23;3.10;;;20.60;82.00;;;;;;6269840;22;20027;-68
2021/11/12 00:34:47;;;;;;;;;;;20.60;82.50;;;;;;6135802;22;20113;-68
2021/11/12 00:37:16;;;;;;;10.10;2.90;;;20.60;82.70;;;;;;6265537;22;19899;-68
2021/11/12 00:39:48;;;;;;;11.48;2.85;;;20.60;82.60;;;;;;6268865;22;20000;-69
2021/11/12 00:42:18;;;;;;;11.63;4.22;;;20.60;82.50;;;;;;6270210;22;20004;-68
2021/11/12 00:44:52;;;;;;;12.40;2.90;;;20.60;82.50;;;;;;6268664;22;20078;-68
2021/11/12 00:47:28;;;;;;;11.32;3.92;;;20.50;82.40;;;;;;6270452;22;20462;-68
2021/11/12 00:55:22;;;;;;;10.45;2.47;;;20.50;82.90;;;;;;6271210;22;20483;-68
2021/11/12 00:57:49;;;;;;;12.13;3.38;;;20.50;83.00;;;;;;6268245;22;20019;-69
2021/11/12 01:00:16;;;;;;;10.63;3.78;;;20.50;82.90;;;;;;6269945;22;20409;-68
2021/11/12 01:02:43;;;;;;;13.98;2.47;;;20.50;82.90;;;;;;6268560;22;20057;-68
2021/11/12 01:05:11;;;;;;;9.32;2.38;;;20.50;82.90;;;;;;6269905;22;20441;-68
2021/11/12 01:07:39;;;;;;;14.27;2.80;;;20.50;82.90;;;;;;6269265;22;20003;-67
2021/11/12 01:10:09;;;;;;;13.63;2.22;;;20.50;82.90;;;;;;6268973;22;20042;-68
2021/11/12 01:12:38;;;;;;;10.70;3.08;;;20.50;83.60;;;;;;6269979;22;20003;-68
2021/11/12 01:15:08;;;;;;;12.90;3.00;;;20.40;82.90;;;;;;6268332;22;20007;-68
2021/11/12 01:17:35;;;;;;;16.95;3.50;;;20.50;82.90;;;;;;6269966;22;20046;-69
2021/11/12 01:20:03;;;;;;;8.80;2.90;;;20.50;83.00;;;;;;6267558;22;20086;-68
2021/11/12 01:22:31;;;;;;;11.23;2.80;;;20.40;83.00;;;;;;6268316;22;20026;-68
2021/11/12 01:24:57;;;;;;;12.60;2.97;;;20.50;83.10;;;;;;6269417;22;20000;-68
2021/11/12 01:27:23;;;;;;;11.65;3.35;;;20.40;83.00;;;;;;6268282;22;20328;-68
2021/11/12 01:29:50;;;;;;;9.65;2.75;;;20.40;83.00;;;;;;6270210;22;20376;-68
2021/11/12 01:32:20;;;;;;;16.40;4.82;;;20.40;83.20;;;;;;6268181;22;20000;-68
2021/11/12 01:34:49;;;;;;;10.65;2.90;;;20.40;83.20;;;;;;6269817;22;19995;-68
2021/11/12 01:37:19;;;;;;;10.88;2.78;;;20.40;83.30;;;;;;6268367;22;20094;-68
2021/11/12 01:39:52;;;;;;;9.98;3.00;;;20.40;83.30;;;;;;6269673;22;20026;-68
2021/11/12 01:42:20;;;;;;;13.95;3.90;;;20.40;83.30;;;;;;6269305;22;19996;-67
2021/11/12 01:44:55;;;;;;;14.00;3.10;;;20.40;83.40;;;;;;6268544;22;20004;-68
2021/11/12 01:49:53;;;;;;;10.40;3.53;;;20.30;83.60;;;;;;6267622;22;20019;-68
2021/11/12 01:55:06;;;;;;;11.88;2.75;;;20.30;84.40;;;;;;6268556;22;20061;-68
2021/11/12 02:00:21;;;;;;;24.23;3.92;;;20.30;83.80;;;;;;6270120;22;20432;-68
2021/11/12 02:02:48;;;;;;;15.68;3.25;;;20.40;83.90;;;;;;6268022;22;20004;-68
2021/11/12 02:05:16;;;;;;;7.65;3.00;;;20.30;84.00;;;;;;6270038;22;20065;-69
2021/11/12 02:07:43;;;;;;;16.60;2.30;;;20.30;83.80;;;;;;6269137;22;19999;-68
2021/11/12 02:10:18;;;;;;;10.00;2.55;;;20.20;83.80;;;;;;6269855;22;20378;-68
2021/11/12 02:15:17;;;;;;;6.47;1.75;;;20.20;83.90;;;;;;6268721;22;20004;-68
2021/11/12 02:17:54;;;;;;;9.68;2.13;;;20.30;84.00;;;;;;6270238;22;19996;-68
2021/11/12 02:20:44;;;;;;;8.45;2.50;;;20.30;83.90;;;;;;6268603;22;20000;-68
2021/11/12 02:23:11;;;;;;;9.15;1.90;;;20.30;84.00;;;;;;6269867;22;19995;-68
2021/11/12 02:28:10;;;;;;;10.25;2.30;;;20.20;84.90;;;;;;6270307;22;20004;-68
2021/11/12 02:30:37;;;;;;;12.18;4.18;;;20.30;84.40;;;;;;6270805;22;20101;-68
2021/11/12 02:33:10;;;;;;;11.88;2.72;;;20.20;84.50;;;;;;6270867;22;20006;-68
2021/11/12 02:35:44;;;;;;;10.20;2.17;;;20.30;84.50;;;;;;6271797;22;19999;-68
2021/11/12 02:38:11;;;;;;;5.18;2.55;;;20.30;84.50;;;;;;6271140;22;19996;-67
2021/11/12 02:40:38;;;;;;;13.75;2.15;;;20.30;84.50;;;;;;6272064;22;20003;-68
2021/11/12 02:43:05;;;;;;;10.63;2.58;;;20.30;84.60;;;;;;6272556;22;20003;-68
2021/11/12 02:45:36;;;;;;;11.65;2.65;;;20.30;84.50;;;;;;6270734;22;20034;-68
2021/11/12 02:48:03;;;;;;;11.88;2.78;;;20.30;84.60;;;;;;6271925;22;20472;-67
2021/11/12 02:50:29;;;;;;;7.07;2.78;;;20.30;84.60;;;;;;6270640;22;20007;-68
2021/11/12 02:53:03;;;;;;;12.20;3.17;;;20.30;84.70;;;;;;6272807;22;20046;-69
2021/11/12 02:55:31;;;;;;;15.73;3.42;;;20.20;84.70;;;;;;6270766;22;20004;-68
2021/11/12 02:57:58;;;;;;;16.40;2.70;;;20.20;84.80;;;;;;6271418;22;20016;-68
2021/11/12 03:00:25;;;;;;;9.73;2.90;;;20.20;84.80;;;;;;6272364;22;19999;-69
2021/11/12 03:02:53;;;;;;;8.00;2.17;;;20.20;84.80;;;;;;6271087;22;20402;-68
2021/11/12 03:05:20;;;;;;;11.05;2.70;;;20.20;84.90;;;;;;6272050;22;20015;-68
2021/11/12 03:07:46;;;;;;;10.13;3.42;;;20.20;85.00;;;;;;6270763;22;20038;-69
2021/11/12 03:10:14;;;;;;;14.55;3.42;;;20.20;85.10;;;;;;6271710;22;20000;-69
2021/11/12 03:12:42;;;;;;;12.80;2.60;;;20.20;85.30;;;;;;6270589;22;20010;-69
2021/11/12 03:15:10;;;;;;;10.88;2.47;;;20.20;85.40;;;;;;6272127;22;20078;-68
2021/11/12 03:17:42;;;;;;;8.35;2.60;;;20.20;85.50;;;;;;6271761;22;20004;-68
2021/11/12 03:20:11;;;;;;;10.05;2.63;;;20.20;85.40;;;;;;6271226;22;20000;-69
2021/11/12 03:22:50;;;;;;;12.10;3.47;;;20.20;85.50;;;;;;6271972;22;20029;-69
2021/11/12 03:25:40;;;;;;;10.75;2.65;;;20.10;85.40;;;;;;6270327;22;20620;-68
2021/11/12 03:28:15;;;;;;;9.88;2.58;;;20.20;85.60;;;;;;6271520;22;20030;-68
2021/11/12 04:00:50;;;;;;;;;;;20.20;86.30;;;;;;6271300;22;20010;-69
2021/11/12 04:18:02;;;;;;;23.50;17.45;;;20.20;86.20;;;;;;6115847;23;20005;-70
2021/11/12 05:26:33;;;;;;;9.63;1.98;;;20.40;84.10;;;;;;6267900;22;20058;-73
2021/11/12 05:34:39;;;;;;;9.20;2.85;;;20.50;83.20;;;;;;6268146;22;20228;-74
2021/11/12 05:56:04;;;;;;;11.00;2.13;;;20.60;81.10;;;;;;6270052;22;20019;-73
2021/11/12 05:58:30;;;;;;;8.20;1.80;;;20.70;80.90;;;;;;6270650;22;20058;-74
2021/11/12 06:00:57;;;;;;;8.35;1.70;;;20.70;80.80;;;;;;6242504;22;20371;-72
2021/11/12 06:03:24;;;;;;;6.68;1.63;;;20.80;80.70;;;;;;6271337;22;20011;-72
2021/11/12 06:05:50;;;;;;;7.38;1.30;;;20.80;80.30;;;;;;6268887;22;20453;-76
2021/11/12 06:08:17;;;;;;;5.60;1.48;;;20.90;80.00;;;;;;6270976;22;20023;-73
2021/11/12 06:10:43;;;;;;;6.35;1.33;;;20.90;79.50;;;;;;6270850;22;20006;-73
2021/11/12 06:13:11;;;;;;;5.57;1.10;;;21.00;79.30;;;;;;6270035;22;20008;-70
2021/11/12 06:15:39;;;;;;;8.82;2.13;;;21.00;79.10;;;;;;6270991;22;20004;-73
2021/11/12 06:18:06;;;;;;;7.82;2.28;;;21.00;79.20;;;;;;6270050;22;19996;-73
2021/11/12 06:20:34;;;;;;;11.35;1.85;;;21.00;79.10;;;;;;6270254;22;20036;-73
2021/11/12 06:23:00;;;;;;;8.35;1.40;;;21.10;79.30;;;;;;6268981;22;20198;-73
2021/11/12 06:25:27;;;;;;;7.60;1.60;;;21.10;79.00;;;;;;6271269;22;20165;-73
2021/11/12 06:27:54;;;;;;;5.45;1.55;;;21.10;78.70;;;;;;6270812;22;20084;-74
2021/11/12 06:30:20;;;;;;;6.53;1.80;;;21.10;78.20;;;;;;6270482;22;19995;-76
2021/11/12 06:32:47;;;;;;;5.05;1.38;;;21.10;78.20;;;;;;6271844;22;20000;-73
2021/11/12 06:35:14;;;;;;;5.88;1.50;;;21.10;78.50;;;;;;6269773;22;20025;-73
2021/11/12 06:38:24;;;;;;;6.05;1.40;;;21.20;77.90;;;;;;6271054;22;20599;-74
2021/11/12 06:41:52;;;;;;;6.55;2.08;;;21.20;77.30;;;;;;6270377;22;20031;-74
2021/11/12 06:51:29;;;;;;;4.57;1.50;;;21.30;76.30;;;;;;6271152;22;20058;-74
2021/11/12 06:54:35;;;;;;;4.43;1.55;;;21.40;76.10;;;;;;6270899;22;20011;-73
2021/11/12 06:57:42;;;;;;;5.30;1.52;;;21.50;75.80;;;;;;6269901;22;20395;-74
2021/11/12 07:00:48;;;;;;;5.43;1.88;;;21.50;75.80;;;;;;6270908;22;20014;-75
2021/11/12 07:04:10;;;;;;;10.73;1.60;;;21.60;74.70;;;;;;6267832;22;20390;-73
2021/11/12 07:07:16;;;;;;;8.73;1.95;;;21.70;74.40;;;;;;6269606;22;20427;-74
2021/11/12 07:10:22;;;;;;;4.35;1.10;;;21.80;74.30;;;;;;6269760;22;20006;-75
2021/11/12 07:13:29;;;;;;;3.95;1.38;;;21.90;73.80;;;;;;6270897;22;20011;-73
2021/11/12 07:16:15;;;;;;;;;;;21.90;73.00;;;;;;6271626;22;19996;-74
2021/11/12 07:19:21;;;;;;;5.35;1.50;;;22.00;72.50;;;;;;6269860;22;19973;-74
2021/11/12 07:22:07;;;;;;;;;;;22.10;72.00;;;;;;6273538;22;20501;-76
2021/11/12 07:25:13;;;;;;;7.00;1.48;;;22.10;71.90;;;;;;6272404;22;20002;-75
2021/11/12 07:27:59;;;;;;;;;;;22.20;71.70;;;;;;6271908;22;20011;-75
2021/11/12 07:31:06;;;;;;;8.70;1.20;;;22.30;70.80;;;;;;6245803;22;19982;-74
2021/11/12 07:34:12;;;;;;;5.85;1.67;;;22.40;69.70;;;;;;6272458;22;20026;-75
2021/11/12 07:37:19;;;;;;;4.10;1.10;;;22.40;69.40;;;;;;6271610;22;19996;-76
2021/11/12 07:40:36;;;;;;;6.75;1.27;;;22.50;68.80;;;;;;6271908;22;20010;-76
2021/11/12 07:47:16;;;;;;;3.63;0.82;;;22.70;68.30;;;;;;6272867;22;20025;-74
2021/11/12 07:50:24;;;;;;;5.63;1.43;;;22.70;67.80;;;;;;6271406;22;20038;-74
2021/11/12 07:53:31;;;;;;;5.15;0.82;;;22.90;67.60;;;;;;6271558;22;20004;-75
2021/11/12 07:56:37;;;;;;;2.75;1.23;;;22.90;66.60;;;;;;6272673;22;20050;-75
2021/11/12 07:59:43;;;;;;;8.48;1.20;;;23.00;66.60;;;;;;6271758;22;20050;-74
2021/11/12 08:02:50;;;;;;;5.60;1.50;;;23.10;66.20;;;;;;6271114;22;20003;-74
2021/11/12 08:05:57;;;;;;;7.43;1.75;;;23.20;65.90;;;;;;6244635;22;20008;-74
2021/11/12 08:09:07;;;;;;;9.75;1.05;;;23.30;65.10;;;;;;6272234;22;20003;-77
2021/11/12 08:12:29;;;;;;;4.97;1.10;;;23.40;64.20;;;;;;6271471;22;20058;-77
2021/11/12 08:15:51;;;;;;;1.10;0.70;;;23.40;63.50;;;;;;6271115;22;20026;-76
2021/11/12 08:19:42;;;;;;;4.88;1.52;;;23.40;63.80;;;;;;6272175;22;20007;-75
2021/11/12 08:22:39;;;;;;;3.67;0.85;;;23.60;63.90;;;;;;6255656;22;20109;-75
2021/11/12 08:26:06;;;;;;;6.28;0.95;;;23.60;62.90;;;;;;6271990;22;19999;-76
2021/11/12 08:29:41;;;;;;;5.18;1.58;;;23.70;62.80;;;;;;6270792;22;20090;-74
2021/11/12 08:33:13;;;;;;;2.17;1.02;;;23.80;62.20;;;;;;6270819;22;19992;-73
2021/11/12 08:42:51;;;;;;;5.47;1.20;;;24.00;61.40;;;;;;6271632;22;20010;-75
2021/11/12 08:49:11;;;;;;;6.15;1.55;;;24.30;60.80;;;;;;6272126;22;20030;-77
2021/11/12 08:52:18;;;;;;;4.70;1.10;;;24.40;61.10;;;;;;6271764;22;20006;-75
2021/11/12 08:55:27;;;;;;;6.28;1.90;;;24.50;60.40;;;;;;6270597;22;20023;-72
2021/11/12 08:58:33;;;;;;;5.82;1.23;;;24.50;60.00;;;;;;6270455;22;20502;-75
2021/11/12 09:01:39;;;;;;;6.47;1.25;;;24.60;60.10;;;;;;6271885;22;20000;-74
2021/11/12 09:04:46;;;;;;;8.85;1.35;;;24.60;59.40;;;;;;6271657;22;20074;-75
2021/11/12 09:07:52;;;;;;;4.63;1.35;;;24.70;59.50;;;;;;6270576;22;20011;-75
2021/11/12 09:10:38;;;;;;;;;;;24.70;59.90;;;;;;6271829;22;20079;-74
2021/11/12 09:13:47;;;;;;;3.85;0.75;;;24.70;59.70;;;;;;6244445;22;19964;-76
2021/11/12 09:16:54;;;;;;;2.85;1.00;;;24.90;59.40;;;;;;6270506;22;19999;-75
2021/11/12 09:19:50;;;;;;;;;;;24.90;58.60;;;;;;6271895;22;20000;-74
2021/11/12 09:22:56;;;;;;;3.85;1.92;;;25.00;58.30;;;;;;6272678;22;19903;-74
2021/11/12 09:26:03;;;;;;;5.22;1.05;;;25.10;57.80;;;;;;6270988;22;20330;-74
2021/11/12 09:28:48;;;;;;;;;;;25.20;57.50;;;;;;6270849;22;20316;-74
2021/11/12 09:31:54;;;;;;;4.22;1.10;;;25.30;57.00;;;;;;6270922;22;19974;-75
2021/11/12 09:34:40;;;;;;;;;;;25.30;56.80;;;;;;6271611;22;19999;-75
2021/11/12 09:37:47;;;;;;;4.97;1.17;;;25.40;57.00;;;;;;6270091;22;19900;-75
2021/11/12 09:40:53;;;;;;;5.68;1.40;;;25.50;57.00;;;;;;6271649;22;19999;-75
2021/11/12 09:44:02;;;;;;;7.35;1.35;;;25.60;56.70;;;;;;6271401;22;20300;-75
2021/11/12 09:47:09;;;;;;;5.00;1.23;;;25.70;56.30;;;;;;6269974;22;20022;-74
2021/11/12 09:50:16;;;;;;;5.05;1.90;;;25.70;55.50;;;;;;6270972;22;20004;-76
2021/11/12 09:53:22;;;;;;;6.22;1.58;;;25.70;55.70;;;;;;6270657;22;20027;-72
2021/11/12 09:56:28;;;;;;;6.93;0.80;;;25.90;55.90;;;;;;6270626;22;20519;-76
2021/11/12 09:59:14;;;;;;;;;;;25.90;55.60;;;;;;6270569;22;20595;-75
2021/11/12 10:02:20;;;;;;;4.90;1.30;;;26.00;55.90;;;;;;6271509;22;19906;-74
2021/11/12 10:05:29;;;;;;;9.05;1.83;;;26.10;55.50;;;;;;6270764;22;20008;-75
2021/11/12 10:08:21;;;;;;;3.30;1.27;;;26.20;54.90;;;;;;6269997;22;20019;-77
2021/11/12 10:11:29;;;;;;;6.07;1.30;;;26.20;54.70;;;;;;6271256;22;20021;-75
2021/11/12 10:14:39;;;;;;;5.25;1.00;;;26.20;54.90;;;;;;6244323;22;20884;-75
2021/11/12 10:17:45;;;;;;;5.97;1.95;;;26.20;54.60;;;;;;6270200;22;20000;-74
2021/11/12 10:20:51;;;;;;;5.00;1.70;;;26.30;54.50;;;;;;6270739;22;20012;-75
2021/11/12 10:23:57;;;;;;;10.77;1.38;;;26.30;54.50;;;;;;6271412;22;20028;-76
2021/11/12 10:27:03;;;;;;;6.80;1.42;;;26.50;54.00;;;;;;6270617;22;20004;-74
2021/11/12 10:30:09;;;;;;;4.43;1.05;;;26.60;54.00;;;;;;6268991;22;19999;-75
2021/11/12 10:33:15;;;;;;;3.10;0.88;;;26.70;52.50;;;;;;6270510;22;20004;-74
2021/11/12 10:36:21;;;;;;;3.00;0.80;;;26.70;52.50;;;;;;6270166;22;20036;-73
2021/11/12 10:39:27;;;;;;;7.60;1.70;;;26.80;52.30;;;;;;6270212;22;19995;-73
2021/11/12 10:42:33;;;;;;;5.13;1.02;;;26.90;52.60;;;;;;6269609;22;20031;-74
2021/11/12 10:45:52;;;;;;;10.40;6.38;;;27.00;52.40;;;;;;6270341;22;20015;-74
2021/11/12 10:48:58;;;;;;;3.15;1.58;;;27.10;52.40;;;;;;6243307;22;20020;-72
2021/11/12 10:52:10;;;;;;;3.55;1.35;;;27.20;51.90;;;;;;6267660;22;20020;-75
2021/11/12 10:57:17;;;;;;;2.28;0.93;;;27.30;51.20;;;;;;6272070;22;20478;-74
2021/11/12 11:00:04;;;;;;;4.80;2.15;;;27.30;50.30;;;;;;6270287;22;20746;-72
2021/11/12 11:02:43;;;;;;;7.03;1.10;;;27.30;50.60;;;;;;6272077;22;19999;-71
2021/11/12 11:05:27;;;;;;;11.02;1.70;;;27.30;51.60;;;;;;6271502;22;20000;-71
2021/11/12 11:07:56;;;;;;;4.13;1.23;;;27.30;51.60;;;;;;6270560;22;20060;-71
2021/11/12 11:10:24;;;;;;;6.10;1.55;;;27.30;51.40;;;;;;6272148;22;20007;-72
2021/11/12 11:12:52;;;;;;;4.43;0.98;;;27.40;51.30;;;;;;6270370;22;19999;-71
2021/11/12 11:15:49;;;;;;;5.78;1.75;;;27.40;51.40;;;;;;6271703;22;20031;-72
2021/11/12 11:18:37;;;;;;;4.07;1.30;;;27.40;51.50;;;;;;6240856;22;20053;-71
2021/11/12 11:21:09;;;;;;;2.42;1.15;;;27.50;51.30;;;;;;6270512;22;20003;-72
2021/11/12 11:23:58;;;;;;;4.82;1.10;;;27.60;51.10;;;;;;6271285;22;20079;-71
2021/11/12 11:26:25;;;;;;;4.18;0.98;;;27.60;50.60;;;;;;6270464;22;20054;-71
2021/11/12 11:28:56;;;;;;;1.50;0.90;;;27.70;50.10;;;;;;6243815;22;20369;-70
2021/11/12 11:31:23;;;;;;;4.97;1.25;;;27.80;50.20;;;;;;6272127;22;20023;-71
2021/11/12 11:34:29;;;;;;;2.63;1.30;;;27.90;50.30;;;;;;6271500;22;20427;-71
2021/11/12 11:37:41;;;;;;;9.60;1.30;;;28.00;50.20;;;;;;6271559;22;21049;-71
2021/11/12 11:40:47;;;;;;;2.88;0.80;;;28.00;49.30;;;;;;6272745;22;20031;-71
2021/11/12 11:43:53;;;;;;;1.77;0.85;;;28.10;48.70;;;;;;6271004;22;20011;-71
2021/11/12 11:47:06;;;;;;;2.22;0.80;;;28.20;49.00;;;;;;6271691;22;20050;-75
2021/11/12 11:49:35;;;;;;;5.95;0.95;;;28.30;49.10;;;;;;6272062;22;20465;-75
2021/11/12 11:52:04;;;;;;;5.45;0.98;;;28.40;48.70;;;;;;6270992;22;20350;-74
2021/11/12 11:54:49;;;;;;;1.17;0.80;;;28.50;49.00;;;;;;6272417;22;20000;-75
2021/11/12 11:57:22;;;;;;;1.42;0.80;;;28.60;48.20;;;;;;6272451;22;20427;-76
2021/11/12 11:59:49;;;;;;;2.20;1.05;;;28.80;48.10;;;;;;6271541;22;20086;-74
2021/11/12 12:02:22;;;;;;;3.42;0.70;;;28.90;47.70;;;;;;6272233;22;20023;-74
2021/11/12 12:04:51;;;;;;;2.67;0.88;;;28.90;47.40;;;;;;6270595;22;20007;-75
2021/11/12 12:07:20;;;;;;;5.50;2.00;;;29.00;47.30;;;;;;6272248;22;20141;-74
2021/11/12 12:09:52;;;;;;;2.42;1.35;;;29.00;47.60;;;;;;6271702;22;20391;-74
2021/11/12 12:12:31;;;;;;;4.00;2.03;;;28.90;47.30;;;;;;6271750;22;20000;-74
2021/11/12 12:15:12;;;;;;;2.83;1.00;;;28.90;47.90;;;;;;6272315;22;20018;-74
2021/11/12 12:17:43;;;;;;;2.75;1.20;;;29.00;48.10;;;;;;6271159;22;20000;-76
2021/11/12 13:26:06;;;;;;;2.15;0.98;;;28.90;47.30;;;;;;6271440;22;20016;-74
2021/11/12 13:28:36;;;;;;;7.05;1.02;;;28.80;47.50;;;;;;6270245;22;20065;-77
2021/11/12 13:31:05;;;;;;;2.22;0.80;;;28.70;47.40;;;;;;6270559;22;19996;-76
2021/11/12 13:33:41;;;;;;;8.90;1.52;;;28.60;47.80;;;;;;6271421;22;20022;-74
2021/11/12 13:36:24;;;;;;;4.10;0.82;;;28.50;47.70;;;;;;6270480;22;20003;-77
2021/11/12 13:38:55;;;;;;;2.30;0.95;;;28.40;47.50;;;;;;6270959;22;19991;-74
2021/11/12 13:41:28;;;;;;;2.50;0.80;;;28.20;48.00;;;;;;6271269;22;20001;-75
2021/11/12 13:44:07;;;;;;;2.15;0.93;;;28.20;48.40;;;;;;6270459;22;19996;-74
2021/11/12 13:46:54;;;;;;;2.08;1.10;;;28.10;48.30;;;;;;6271710;22;20024;-73
2021/11/12 13:49:29;;;;;;;4.50;0.85;;;28.00;48.50;;;;;;6270446;22;20783;-74
2021/11/12 13:52:15;;;;;;;2.63;0.77;;;28.10;48.90;;;;;;6270580;22;20000;-72
2021/11/12 13:54:52;;;;;;;1.70;0.82;;;28.00;48.60;;;;;;6271138;22;20023;-75
2021/11/12 13:57:25;;;;;;;3.83;0.80;;;28.00;48.80;;;;;;6270181;22;20281;-72
2021/11/12 13:59:58;;;;;;;3.60;0.70;;;28.00;48.80;;;;;;6271547;22;20047;-72
2021/11/12 14:02:31;;;;;;;1.88;0.77;;;27.90;49.00;;;;;;6270450;22;20557;-74
2021/11/12 14:05:12;;;;;;;2.72;0.80;;;27.80;49.00;;;;;;6270813;22;20107;-75
2021/11/12 14:07:39;;;;;;;1.95;0.73;;;27.80;49.30;;;;;;6271245;22;20008;-73
2021/11/12 14:10:09;;;;;;;3.70;1.08;;;27.70;49.30;;;;;;6270079;22;20432;-73
2021/11/12 14:12:36;;;;;;;2.45;0.80;;;27.60;49.60;;;;;;6271241;22;20411;-73
2021/11/12 14:15:12;;;;;;;4.55;0.60;;;27.60;49.60;;;;;;6270120;22;20038;-74
2021/11/12 14:30:20;;;;;;;3.75;1.75;;;27.40;49.80;;;;;;6269294;22;20046;-74
2021/11/12 14:32:54;;;;;;;2.17;0.90;;;27.30;49.90;;;;;;6270690;22;20004;-71
2021/11/12 14:41:09;;;;;;;5.10;1.50;;;27.40;50.60;;;;;;6268981;22;20004;-75
2021/11/12 14:46:28;;;;;;;16.50;3.60;;;27.50;50.40;;;;;;6269539;22;20008;-71
2021/11/12 14:51:41;;;;;;;8.02;4.30;;;27.40;50.80;;;;;;6269698;22;20395;-74
2021/11/12 14:54:11;;;;;;;13.88;12.45;;;27.50;51.10;;;;;;6268343;22;20003;-75
2021/11/12 14:56:41;;;;;;;76.18;68.78;;;27.70;50.70;;;;;;6269042;22;20003;-71
2021/11/12 14:59:15;;;;;;;27.85;14.77;;;27.90;50.60;;;;;;6268286;22;20477;-74
2021/11/12 15:01:41;;;;;;;10.10;2.60;;;28.00;49.90;;;;;;6268165;22;20075;-75
2021/11/12 15:04:08;;;;;;;6.20;4.55;;;28.00;49.20;;;;;;6269069;22;20035;-75
2021/11/12 15:06:35;;;;;;;14.55;7.68;;;27.90;48.80;;;;;;6267313;22;20015;-76
2021/11/12 15:09:06;;;;;;;17.17;3.15;;;27.70;49.10;;;;;;6269480;22;19992;-76
2021/11/12 15:11:34;;;;;;;8.25;1.20;;;27.60;49.40;;;;;;6268531;22;20004;-74
2021/11/12 15:14:15;;;;;;;8.68;2.47;;;27.50;50.20;;;;;;6269736;22;20075;-76
2021/11/12 15:16:42;;;;;;;6.53;4.65;;;27.50;50.40;;;;;;6269729;22;20007;-75
2021/11/12 15:19:14;;;;;;;34.42;17.80;;;27.60;50.20;;;;;;6268160;22;20002;-72
2021/11/12 15:24:35;;;;;;;41.08;34.85;;;27.60;50.50;;;;;;6268705;22;20007;-75
2021/11/12 15:29:54;;;;;;;11.60;6.13;;;27.50;51.00;;;;;;6269705;22;20174;-74
2021/11/12 15:32:40;;;;;;;1.58;0.85;;;27.40;51.00;;;;;;6268274;22;20137;-73
2021/11/12 15:35:13;;;;;;;2.45;0.68;;;27.40;50.90;;;;;;6270160;22;20082;-73
2021/11/12 15:37:46;;;;;;;6.20;0.95;;;27.30;51.10;;;;;;6269390;22;20313;-77
2021/11/12 15:40:22;;;;;;;3.42;1.13;;;27.20;51.70;;;;;;6270057;22;20358;-73
2021/11/12 15:48:22;;;;;;;1.25;0.50;;;26.90;52.40;;;;;;6271690;22;20053;-76
2021/11/12 15:53:45;;;;;;;1.77;0.80;;;26.70;53.00;;;;;;6270742;22;20019;-71
2021/11/12 15:59:06;;;;;;;3.28;1.50;;;26.50;54.00;;;;;;6270920;22;20027;-76
2021/11/12 16:14:25;;;;;;;4.97;1.42;;;26.10;54.90;;;;;;6271783;22;20015;-73
2021/11/12 16:27:04;;;;;;;3.00;0.77;;;25.80;56.10;;;;;;6271255;22;20467;-74
2021/11/12 16:29:59;;;;;;;4.07;1.42;;;25.80;56.30;;;;;;6270633;22;20447;-74
2021/11/12 16:32:35;;;;;;;4.10;1.30;;;25.70;56.30;;;;;;6243875;22;20007;-72
2021/11/12 16:35:02;;;;;;;3.22;1.20;;;25.60;56.50;;;;;;6271529;22;19996;-74
2021/11/12 16:37:31;;;;;;;4.45;1.40;;;25.50;56.80;;;;;;6269864;22;20049;-72
2021/11/12 16:40:00;;;;;;;12.68;2.53;;;25.40;57.10;;;;;;6270434;22;20003;-77
2021/11/12 16:48:32;;;;;;;9.10;8.15;;;25.20;57.90;;;;;;6271234;22;20015;-74
2021/11/12 17:06:09;;;;;;;5.10;1.50;;;24.70;59.60;;;;;;6269663;22;20498;-70
2021/11/12 17:14:22;;;;;;;9.68;2.58;;;24.50;60.80;;;;;;6271543;22;20106;-70
2021/11/12 17:48:41;;;;;;;2.78;1.25;;;23.90;66.00;;;;;;6269584;22;20133;-74
2021/11/12 18:03:02;;;;;;;1.98;1.05;;;23.80;67.10;;;;;;6268426;22;20145;-74
2021/11/12 18:05:11;;;;;;;2.85;1.20;;;23.70;67.40;;;;;;6241737;22;19999;-77
2021/11/12 21:45:53;;;;;;;1.17;0.40;;;22.50;72.00;;;;;;6270683;22;20126;-74
2021/11/12 21:48:20;;;;;;;0.60;0.43;;;22.50;72.70;;;;;;6271271;22;19999;-73
2021/11/12 21:50:51;;;;;;;1.23;0.30;;;22.50;72.20;;;;;;6271486;22;19999;-73
2021/11/12 21:53:18;;;;;;;1.05;0.40;;;22.50;72.00;;;;;;6269819;22;20000;-72
2021/11/12 21:55:44;;;;;;;0.30;0.20;;;22.50;71.90;;;;;;6270829;22;20004;-72
2021/11/12 21:58:11;;;;;;;0.50;0.30;;;22.50;71.90;;;;;;6270125;22;20339;-73
2021/11/12 22:00:38;;;;;;;0.55;0.45;;;22.50;71.90;;;;;;6271611;22;20007;-72
2021/11/12 22:03:04;;;;;;;0.40;0.30;;;22.50;72.00;;;;;;6270492;22;19995;-72
2021/11/12 22:05:31;;;;;;;0.43;0.38;;;22.50;72.00;;;;;;6270704;22;20011;-73
2021/11/12 22:07:57;;;;;;;0.80;0.73;;;22.50;71.90;;;;;;6271035;22;20268;-73
2021/11/12 22:10:24;;;;;;;1.92;0.60;;;22.60;72.00;;;;;;6269862;22;20092;-73
2021/11/12 22:12:50;;;;;;;0.35;0.35;;;22.50;72.80;;;;;;6244091;22;20339;-73
2021/11/12 22:15:17;;;;;;;2.28;0.30;;;22.50;72.20;;;;;;6269320;22;20003;-72
2021/11/12 22:17:43;;;;;;;1.30;0.30;;;22.50;72.20;;;;;;6269996;22;20007;-72
2021/11/12 22:20:11;;;;;;;0.40;0.40;;;22.50;72.50;;;;;;6270365;22;20004;-72
2021/11/12 22:22:39;;;;;;;0.70;0.40;;;22.40;72.60;;;;;;6243756;22;20011;-72
2021/11/12 22:25:06;;;;;;;1.98;0.40;;;22.40;72.70;;;;;;6271222;22;20015;-72
2021/11/12 22:27:33;;;;;;;7.18;0.70;;;22.40;73.00;;;;;;6242585;22;20060;-73
2021/11/12 22:29:59;;;;;;;5.32;0.70;;;22.50;73.20;;;;;;6271170;22;20327;-72
2021/11/12 22:32:26;;;;;;;10.05;0.85;;;22.50;73.50;;;;;;6269927;22;20004;-72
2021/11/12 22:34:55;;;;;;;4.70;0.82;;;22.50;74.00;;;;;;6270960;22;19996;-72
2021/11/12 22:37:21;;;;;;;4.93;1.15;;;22.50;74.60;;;;;;6269513;22;20023;-73
2021/11/12 22:39:48;;;;;;;6.53;1.52;;;22.50;74.70;;;;;;6271148;22;20057;-72
2021/11/12 22:42:16;;;;;;;1.05;0.40;;;22.40;74.80;;;;;;6270690;22;20000;-73
2021/11/12 22:44:44;;;;;;;1.05;0.40;;;22.40;74.60;;;;;;6270113;22;20061;-72
2021/11/12 22:47:12;;;;;;;2.63;0.35;;;22.50;74.60;;;;;;6243327;22;20103;-72
2021/11/12 22:49:38;;;;;;;1.60;0.50;;;22.50;74.40;;;;;;6269974;22;20018;-72
2021/11/12 22:52:05;;;;;;;0.80;0.57;;;22.50;74.40;;;;;;6273130;22;20010;-72
2021/11/12 22:54:32;;;;;;;0.55;0.40;;;22.50;74.40;;;;;;6272420;22;20105;-72
2021/11/12 22:56:59;;;;;;;1.15;0.70;;;22.50;74.30;;;;;;6272675;22;20670;-72
2021/11/12 22:59:25;;;;;;;0.63;0.40;;;22.40;74.30;;;;;;6272027;22;20058;-72
2021/11/12 23:01:53;;;;;;;0.90;0.38;;;22.50;74.50;;;;;;6272666;22;20170;-72
2021/11/12 23:04:20;;;;;;;0.73;0.50;;;22.50;74.60;;;;;;6273050;22;20420;-72
2021/11/12 23:06:47;;;;;;;2.05;0.82;;;22.40;74.70;;;;;;6271417;22;20046;-73
2021/11/12 23:09:15;;;;;;;1.08;0.50;;;22.40;74.70;;;;;;6245794;22;20011;-72
2021/11/12 23:11:42;;;;;;;3.85;0.57;;;22.40;74.90;;;;;;6271587;22;20004;-73
2021/11/12 23:14:08;;;;;;;4.00;0.68;;;22.40;75.10;;;;;;6273096;22;20049;-72
2021/11/12 23:16:35;;;;;;;1.13;0.60;;;22.40;75.10;;;;;;6272079;22;20370;-72
2021/11/12 23:19:01;;;;;;;1.98;0.50;;;22.40;75.10;;;;;;6244903;22;20007;-72
2021/11/12 23:21:28;;;;;;;0.28;0.28;;;22.30;75.10;;;;;;6272845;22;20042;-73
2021/11/12 23:23:54;;;;;;;0.85;0.30;;;22.30;75.00;;;;;;6271780;22;19999;-73
2021/11/12 23:26:23;;;;;;;1.55;0.50;;;22.30;75.10;;;;;;6272536;22;20008;-73
2021/11/12 23:28:50;;;;;;;1.23;0.40;;;22.30;75.10;;;;;;6271798;22;20424;-72
2021/11/12 23:31:17;;;;;;;1.45;0.52;;;22.20;75.10;;;;;;6272958;22;20004;-73
2021/11/12 23:33:44;;;;;;;1.45;0.77;;;22.30;75.30;;;;;;6245272;22;20007;-72
2021/11/12 23:36:11;;;;;;;0.47;0.47;;;22.20;75.30;;;;;;6272567;22;20003;-73
2021/11/12 23:38:37;;;;;;;2.13;0.70;;;22.20;75.50;;;;;;6272077;22;20007;-72
2021/11/12 23:41:04;;;;;;;0.45;0.40;;;22.20;75.30;;;;;;6271344;22;20027;-72
2021/11/12 23:43:30;;;;;;;0.95;0.40;;;22.20;75.30;;;;;;6272451;22;20458;-73
2021/11/12 23:45:57;;;;;;;1.95;0.50;;;22.20;75.40;;;;;;6270556;22;20007;-72
2021/11/12 23:48:23;;;;;;;0.45;0.45;;;22.20;75.40;;;;;;6272794;22;19995;-72
2021/11/12 23:50:50;;;;;;;1.58;0.40;;;22.10;75.80;;;;;;6271080;22;20008;-72
2021/11/12 23:53:17;;;;;;;0.75;0.45;;;22.10;75.90;;;;;;6272257;22;20358;-73
2021/11/12 23:55:43;;;;;;;0.55;0.52;;;22.10;76.00;;;;;;6271933;22;20031;-73
2021/11/12 23:58:10;;;;;;;1.05;0.47;;;22.10;76.20;;;;;;6271423;22;20011;-73
